sensor_id;sensor_type;location;lat;lon;timestamp;P1;durP1;ratioP1;P2;durP2;ratioP2
65035;SDS011;51603;49.300;8.880;2023-09-08T00:00:51;7.30;;;6.00;;
65035;SDS011;51603;49.300;8.880;2023-09-08T00:03:17;7.80;;;7.10;;
65035;SDS011;51603;49.300;8.880;2023-09-08T00:05:42;6.87;;;6.17;;
65035;SDS011;51603;49.300;8.880;2023-09-08T00:08:08;8.77;;;6.57;;
65035;SDS011;51603;49.300;8.880;2023-09-08T00:10:33;6.20;;;5.60;;
65035;SDS011;51603;49.300;8.880;2023-09-08T00:12:59;6.20;;;5.60;;
65035;SDS011;51603;49.300;8.880;2023-09-08T00:15:24;6.90;;;6.27;;
65035;SDS011;51603;49.300;8.880;2023-09-08T00:17:50;9.37;;;6.70;;
65035;SDS011;51603;49.300;8.880;2023-09-08T00:20:15;7.07;;;6.40;;
65035;SDS011;51603;49.300;8.880;2023-09-08T00:22:41;7.20;;;6.23;;
65035;SDS011;51603;49.300;8.880;2023-09-08T00:25:06;8.40;;;6.63;;
65035;SDS011;51603;49.300;8.880;2023-09-08T00:27:32;7.67;;;6.73;;
65035;SDS011;51603;49.300;8.880;2023-09-08T00:29:58;7.50;;;6.80;;
65035;SDS011;51603;49.300;8.880;2023-09-08T00:32:23;7.23;;;6.53;;
65035;SDS011;51603;49.300;8.880;2023-09-08T00:34:49;8.33;;;6.83;;
65035;SDS011;51603;49.300;8.880;2023-09-08T00:37:14;7.87;;;7.17;;
65035;SDS011;51603;49.300;8.880;2023-09-08T00:39:40;7.23;;;6.53;;
65035;SDS011;51603;49.300;8.880;2023-09-08T00:42:05;7.13;;;6.43;;
65035;SDS011;51603;49.300;8.880;2023-09-08T00:44:32;7.93;;;6.80;;
65035;SDS011;51603;49.300;8.880;2023-09-08T00:46:57;7.40;;;6.70;;
65035;SDS011;51603;49.300;8.880;2023-09-08T00:49:23;7.33;;;6.63;;
65035;SDS011;51603;49.300;8.880;2023-09-08T00:51:49;7.73;;;7.00;;
65035;SDS011;51603;49.300;8.880;2023-09-08T00:54:14;11.03;;;6.67;;
65035;SDS011;51603;49.300;8.880;2023-09-08T00:56:40;7.83;;;7.13;;
65035;SDS011;51603;49.300;8.880;2023-09-08T00:59:06;6.77;;;6.10;;
65035;SDS011;51603;49.300;8.880;2023-09-08T01:01:33;7.57;;;6.67;;
65035;SDS011;51603;49.300;8.880;2023-09-08T01:04:00;7.27;;;6.57;;
65035;SDS011;51603;49.300;8.880;2023-09-08T01:06:26;8.97;;;6.30;;
65035;SDS011;51603;49.300;8.880;2023-09-08T01:08:53;6.97;;;6.27;;
65035;SDS011;51603;49.300;8.880;2023-09-08T01:11:20;7.20;;;6.60;;
65035;SDS011;51603;49.300;8.880;2023-09-08T01:13:46;10.53;;;6.97;;
65035;SDS011;51603;49.300;8.880;2023-09-08T01:16:11;7.03;;;6.43;;
65035;SDS011;51603;49.300;8.880;2023-09-08T01:18:37;8.17;;;6.90;;
65035;SDS011;51603;49.300;8.880;2023-09-08T01:21:05;7.90;;;7.07;;
65035;SDS011;51603;49.300;8.880;2023-09-08T01:23:59;11.00;;;7.23;;
65035;SDS011;51603;49.300;8.880;2023-09-08T01:26:37;8.17;;;6.80;;
65035;SDS011;51603;49.300;8.880;2023-09-08T01:29:06;7.03;;;6.23;;
65035;SDS011;51603;49.300;8.880;2023-09-08T01:31:33;6.90;;;6.30;;
65035;SDS011;51603;49.300;8.880;2023-09-08T01:34:00;8.10;;;6.83;;
65035;SDS011;51603;49.300;8.880;2023-09-08T01:36:30;7.30;;;6.60;;
65035;SDS011;51603;49.300;8.880;2023-09-08T01:38:55;7.10;;;6.53;;
65035;SDS011;51603;49.300;8.880;2023-09-08T01:41:21;7.43;;;6.67;;
65035;SDS011;51603;49.300;8.880;2023-09-08T01:43:46;8.43;;;6.73;;
65035;SDS011;51603;49.300;8.880;2023-09-08T01:46:11;7.17;;;6.50;;
65035;SDS011;51603;49.300;8.880;2023-09-08T01:48:38;7.60;;;6.43;;
65035;SDS011;51603;49.300;8.880;2023-09-08T01:51:03;8.67;;;6.27;;
65035;SDS011;51603;49.300;8.880;2023-09-08T01:53:29;7.80;;;7.10;;
65035;SDS011;51603;49.300;8.880;2023-09-08T01:55:54;7.30;;;5.93;;
65035;SDS011;51603;49.300;8.880;2023-09-08T01:58:20;9.23;;;7.27;;
65035;SDS011;51603;49.300;8.880;2023-09-08T02:00:49;7.97;;;6.80;;
65035;SDS011;51603;49.300;8.880;2023-09-08T02:03:16;6.20;;;5.70;;
65035;SDS011;51603;49.300;8.880;2023-09-08T02:05:41;7.13;;;6.43;;
65035;SDS011;51603;49.300;8.880;2023-09-08T02:08:07;7.20;;;6.50;;
65035;SDS011;51603;49.300;8.880;2023-09-08T02:10:32;7.23;;;6.20;;
65035;SDS011;51603;49.300;8.880;2023-09-08T02:13:04;8.70;;;6.80;;
65035;SDS011;51603;49.300;8.880;2023-09-08T02:15:30;6.93;;;6.20;;
65035;SDS011;51603;49.300;8.880;2023-09-08T02:17:55;7.40;;;6.80;;
65035;SDS011;51603;49.300;8.880;2023-09-08T02:20:21;8.10;;;7.30;;
65035;SDS011;51603;49.300;8.880;2023-09-08T02:22:47;7.67;;;6.97;;
65035;SDS011;51603;49.300;8.880;2023-09-08T02:25:15;8.57;;;6.53;;
65035;SDS011;51603;49.300;8.880;2023-09-08T02:27:40;7.07;;;6.37;;
65035;SDS011;51603;49.300;8.880;2023-09-08T02:30:06;7.57;;;6.53;;
65035;SDS011;51603;49.300;8.880;2023-09-08T02:32:32;6.57;;;5.87;;
65035;SDS011;51603;49.300;8.880;2023-09-08T02:34:57;9.60;;;6.90;;
65035;SDS011;51603;49.300;8.880;2023-09-08T02:37:23;6.77;;;6.17;;
65035;SDS011;51603;49.300;8.880;2023-09-08T02:39:48;7.60;;;6.80;;
65035;SDS011;51603;49.300;8.880;2023-09-08T02:42:14;7.13;;;6.37;;
65035;SDS011;51603;49.300;8.880;2023-09-08T02:44:39;6.93;;;6.23;;
65035;SDS011;51603;49.300;8.880;2023-09-08T02:47:05;7.97;;;7.27;;
65035;SDS011;51603;49.300;8.880;2023-09-08T02:49:31;7.77;;;7.03;;
65035;SDS011;51603;49.300;8.880;2023-09-08T02:51:57;7.57;;;6.50;;
65035;SDS011;51603;49.300;8.880;2023-09-08T02:54:22;7.63;;;6.73;;
65035;SDS011;51603;49.300;8.880;2023-09-08T02:56:48;7.80;;;6.97;;
65035;SDS011;51603;49.300;8.880;2023-09-08T02:59:13;7.80;;;7.20;;
65035;SDS011;51603;49.300;8.880;2023-09-08T03:01:39;9.27;;;6.73;;
65035;SDS011;51603;49.300;8.880;2023-09-08T03:04:05;7.40;;;6.70;;
65035;SDS011;51603;49.300;8.880;2023-09-08T03:06:30;7.17;;;6.53;;
65035;SDS011;51603;49.300;8.880;2023-09-08T03:08:58;7.63;;;6.93;;
65035;SDS011;51603;49.300;8.880;2023-09-08T03:11:23;7.63;;;6.67;;
65035;SDS011;51603;49.300;8.880;2023-09-08T03:13:49;7.97;;;7.30;;
65035;SDS011;51603;49.300;8.880;2023-09-08T03:16:15;9.00;;;8.10;;
65035;SDS011;51603;49.300;8.880;2023-09-08T03:18:41;9.20;;;7.03;;
65035;SDS011;51603;49.300;8.880;2023-09-08T03:21:06;8.40;;;7.40;;
65035;SDS011;51603;49.300;8.880;2023-09-08T03:23:38;7.60;;;6.90;;
65035;SDS011;51603;49.300;8.880;2023-09-08T03:26:05;6.97;;;6.30;;
65035;SDS011;51603;49.300;8.880;2023-09-08T03:28:31;7.40;;;6.80;;
65035;SDS011;51603;49.300;8.880;2023-09-08T03:30:58;7.47;;;6.77;;
65035;SDS011;51603;49.300;8.880;2023-09-08T03:33:23;7.73;;;6.93;;
65035;SDS011;51603;49.300;8.880;2023-09-08T03:35:49;7.93;;;7.13;;
65035;SDS011;51603;49.300;8.880;2023-09-08T03:38:14;12.87;;;8.73;;
65035;SDS011;51603;49.300;8.880;2023-09-08T03:40:40;7.83;;;7.13;;
65035;SDS011;51603;49.300;8.880;2023-09-08T03:43:06;8.07;;;7.20;;
65035;SDS011;51603;49.300;8.880;2023-09-08T03:45:31;8.03;;;7.23;;
65035;SDS011;51603;49.300;8.880;2023-09-08T03:47:57;7.60;;;6.90;;
65035;SDS011;51603;49.300;8.880;2023-09-08T03:50:23;8.00;;;7.10;;
65035;SDS011;51603;49.300;8.880;2023-09-08T03:52:49;7.50;;;6.90;;
65035;SDS011;51603;49.300;8.880;2023-09-08T03:55:15;7.50;;;6.80;;
65035;SDS011;51603;49.300;8.880;2023-09-08T03:57:41;7.57;;;6.97;;
65035;SDS011;51603;49.300;8.880;2023-09-08T04:00:07;9.80;;;7.30;;
65035;SDS011;51603;49.300;8.880;2023-09-08T04:02:35;7.10;;;6.50;;
65035;SDS011;51603;49.300;8.880;2023-09-08T04:05:01;8.37;;;7.57;;
65035;SDS011;51603;49.300;8.880;2023-09-08T04:07:27;8.07;;;7.37;;
65035;SDS011;51603;49.300;8.880;2023-09-08T04:09:52;9.47;;;8.57;;
65035;SDS011;51603;49.300;8.880;2023-09-08T04:12:18;7.97;;;7.17;;
65035;SDS011;51603;49.300;8.880;2023-09-08T04:14:43;7.60;;;6.90;;
65035;SDS011;51603;49.300;8.880;2023-09-08T04:17:09;8.60;;;7.80;;
65035;SDS011;51603;49.300;8.880;2023-09-08T04:19:34;8.27;;;7.47;;
65035;SDS011;51603;49.300;8.880;2023-09-08T04:22:00;9.07;;;8.17;;
65035;SDS011;51603;49.300;8.880;2023-09-08T04:24:25;8.00;;;7.30;;
65035;SDS011;51603;49.300;8.880;2023-09-08T04:26:51;8.43;;;7.63;;
65035;SDS011;51603;49.300;8.880;2023-09-08T04:29:16;10.50;;;7.40;;
65035;SDS011;51603;49.300;8.880;2023-09-08T04:31:42;7.53;;;6.90;;
65035;SDS011;51603;49.300;8.880;2023-09-08T04:34:07;8.50;;;7.70;;
65035;SDS011;51603;49.300;8.880;2023-09-08T04:36:33;8.40;;;7.60;;
65035;SDS011;51603;49.300;8.880;2023-09-08T04:38:58;7.60;;;7.00;;
65035;SDS011;51603;49.300;8.880;2023-09-08T04:41:24;8.60;;;7.80;;
65035;SDS011;51603;49.300;8.880;2023-09-08T04:43:49;9.37;;;8.47;;
65035;SDS011;51603;49.300;8.880;2023-09-08T04:46:15;8.70;;;7.90;;
65035;SDS011;51603;49.300;8.880;2023-09-08T04:48:40;9.73;;;8.07;;
65035;SDS011;51603;49.300;8.880;2023-09-08T04:51:07;8.97;;;8.17;;
65035;SDS011;51603;49.300;8.880;2023-09-08T04:53:32;7.97;;;7.17;;
65035;SDS011;51603;49.300;8.880;2023-09-08T04:55:58;8.40;;;7.70;;
65035;SDS011;51603;49.300;8.880;2023-09-08T04:58:24;8.77;;;8.03;;
65035;SDS011;51603;49.300;8.880;2023-09-08T05:00:50;9.53;;;8.63;;
65035;SDS011;51603;49.300;8.880;2023-09-08T05:03:16;9.10;;;8.23;;
65035;SDS011;51603;49.300;8.880;2023-09-08T05:05:41;9.10;;;8.20;;
65035;SDS011;51603;49.300;8.880;2023-09-08T05:08:07;8.10;;;7.40;;
65035;SDS011;51603;49.300;8.880;2023-09-08T05:10:32;8.33;;;7.50;;
65035;SDS011;51603;49.300;8.880;2023-09-08T05:12:58;8.43;;;7.63;;
65035;SDS011;51603;49.300;8.880;2023-09-08T05:15:23;9.60;;;8.60;;
65035;SDS011;51603;49.300;8.880;2023-09-08T05:17:50;9.10;;;8.20;;
65035;SDS011;51603;49.300;8.880;2023-09-08T05:20:15;9.23;;;8.33;;
65035;SDS011;51603;49.300;8.880;2023-09-08T05:22:41;8.57;;;7.63;;
65035;SDS011;51603;49.300;8.880;2023-09-08T05:25:07;8.23;;;7.43;;
65035;SDS011;51603;49.300;8.880;2023-09-08T05:27:32;8.10;;;7.40;;
65035;SDS011;51603;49.300;8.880;2023-09-08T05:29:58;7.83;;;7.20;;
65035;SDS011;51603;49.300;8.880;2023-09-08T05:32:23;7.73;;;7.03;;
65035;SDS011;51603;49.300;8.880;2023-09-08T05:34:49;7.87;;;7.17;;
65035;SDS011;51603;49.300;8.880;2023-09-08T05:37:15;7.83;;;7.23;;
65035;SDS011;51603;49.300;8.880;2023-09-08T05:39:41;9.00;;;8.10;;
65035;SDS011;51603;49.300;8.880;2023-09-08T05:42:06;8.47;;;7.70;;
65035;SDS011;51603;49.300;8.880;2023-09-08T05:44:32;7.63;;;7.03;;
65035;SDS011;51603;49.300;8.880;2023-09-08T05:46:57;8.63;;;7.83;;
65035;SDS011;51603;49.300;8.880;2023-09-08T05:49:23;9.07;;;7.83;;
65035;SDS011;51603;49.300;8.880;2023-09-08T05:51:48;7.67;;;6.97;;
65035;SDS011;51603;49.300;8.880;2023-09-08T05:54:14;9.93;;;8.03;;
65035;SDS011;51603;49.300;8.880;2023-09-08T05:56:40;8.23;;;7.53;;
65035;SDS011;51603;49.300;8.880;2023-09-08T05:59:05;8.00;;;7.20;;
65035;SDS011;51603;49.300;8.880;2023-09-08T06:01:31;8.60;;;7.80;;
65035;SDS011;51603;49.300;8.880;2023-09-08T06:03:57;9.07;;;8.10;;
65035;SDS011;51603;49.300;8.880;2023-09-08T06:06:23;8.30;;;7.50;;
65035;SDS011;51603;49.300;8.880;2023-09-08T06:08:50;8.77;;;7.93;;
65035;SDS011;51603;49.300;8.880;2023-09-08T06:11:15;8.53;;;7.67;;
65035;SDS011;51603;49.300;8.880;2023-09-08T06:13:41;8.60;;;7.70;;
65035;SDS011;51603;49.300;8.880;2023-09-08T06:16:07;9.30;;;8.23;;
65035;SDS011;51603;49.300;8.880;2023-09-08T06:18:33;8.23;;;7.43;;
65035;SDS011;51603;49.300;8.880;2023-09-08T06:21:04;9.20;;;8.30;;
65035;SDS011;51603;49.300;8.880;2023-09-08T06:23:31;8.77;;;7.97;;
65035;SDS011;51603;49.300;8.880;2023-09-08T06:25:58;9.20;;;8.40;;
65035;SDS011;51603;49.300;8.880;2023-09-08T06:28:24;9.80;;;8.80;;
65035;SDS011;51603;49.300;8.880;2023-09-08T06:30:53;9.77;;;8.90;;
65035;SDS011;51603;49.300;8.880;2023-09-08T06:33:19;8.20;;;7.50;;
65035;SDS011;51603;49.300;8.880;2023-09-08T06:35:45;8.10;;;7.30;;
65035;SDS011;51603;49.300;8.880;2023-09-08T06:38:12;8.20;;;7.40;;
65035;SDS011;51603;49.300;8.880;2023-09-08T06:40:37;10.70;;;7.73;;
65035;SDS011;51603;49.300;8.880;2023-09-08T06:43:03;8.57;;;7.67;;
65035;SDS011;51603;49.300;8.880;2023-09-08T06:45:28;9.13;;;8.23;;
65035;SDS011;51603;49.300;8.880;2023-09-08T06:47:54;8.60;;;7.63;;
65035;SDS011;51603;49.300;8.880;2023-09-08T06:50:20;8.77;;;7.93;;
65035;SDS011;51603;49.300;8.880;2023-09-08T06:52:47;7.53;;;6.83;;
65035;SDS011;51603;49.300;8.880;2023-09-08T06:55:13;8.30;;;7.60;;
65035;SDS011;51603;49.300;8.880;2023-09-08T06:57:41;10.20;;;8.87;;
65035;SDS011;51603;49.300;8.880;2023-09-08T07:00:10;8.37;;;7.57;;
65035;SDS011;51603;49.300;8.880;2023-09-08T07:02:36;8.67;;;7.80;;
65035;SDS011;51603;49.300;8.880;2023-09-08T07:05:02;9.17;;;8.30;;
65035;SDS011;51603;49.300;8.880;2023-09-08T07:07:32;9.10;;;7.87;;
65035;SDS011;51603;49.300;8.880;2023-09-08T07:10:05;9.80;;;7.73;;
65035;SDS011;51603;49.300;8.880;2023-09-08T07:12:31;9.70;;;8.80;;
65035;SDS011;51603;49.300;8.880;2023-09-08T07:14:56;11.30;;;8.17;;
65035;SDS011;51603;49.300;8.880;2023-09-08T07:17:22;8.23;;;7.53;;
65035;SDS011;51603;49.300;8.880;2023-09-08T07:19:50;8.33;;;7.53;;
65035;SDS011;51603;49.300;8.880;2023-09-08T07:22:16;7.40;;;6.70;;
65035;SDS011;51603;49.300;8.880;2023-09-08T07:24:42;7.80;;;7.00;;
65035;SDS011;51603;49.300;8.880;2023-09-08T07:27:09;8.83;;;7.30;;
65035;SDS011;51603;49.300;8.880;2023-09-08T07:29:34;7.30;;;6.70;;
65035;SDS011;51603;49.300;8.880;2023-09-08T07:32:00;8.17;;;7.37;;
65035;SDS011;51603;49.300;8.880;2023-09-08T07:34:25;7.30;;;5.63;;
65035;SDS011;51603;49.300;8.880;2023-09-08T07:36:51;7.10;;;6.50;;
65035;SDS011;51603;49.300;8.880;2023-09-08T07:39:16;10.03;;;6.80;;
65035;SDS011;51603;49.300;8.880;2023-09-08T07:41:42;7.37;;;6.73;;
65035;SDS011;51603;49.300;8.880;2023-09-08T07:44:07;7.40;;;6.70;;
65035;SDS011;51603;49.300;8.880;2023-09-08T07:46:33;9.97;;;6.93;;
65035;SDS011;51603;49.300;8.880;2023-09-08T07:48:59;7.20;;;6.60;;
65035;SDS011;51603;49.300;8.880;2023-09-08T07:51:25;7.47;;;6.70;;
65035;SDS011;51603;49.300;8.880;2023-09-08T07:53:51;6.63;;;5.93;;
65035;SDS011;51603;49.300;8.880;2023-09-08T07:56:17;9.30;;;7.10;;
65035;SDS011;51603;49.300;8.880;2023-09-08T07:58:43;6.53;;;5.93;;
65035;SDS011;51603;49.300;8.880;2023-09-08T08:01:08;7.07;;;6.10;;
65035;SDS011;51603;49.300;8.880;2023-09-08T08:03:34;6.80;;;6.20;;
65035;SDS011;51603;49.300;8.880;2023-09-08T08:06:00;6.93;;;6.30;;
65035;SDS011;51603;49.300;8.880;2023-09-08T08:08:26;6.87;;;6.27;;
65035;SDS011;51603;49.300;8.880;2023-09-08T08:10:51;6.73;;;6.03;;
65035;SDS011;51603;49.300;8.880;2023-09-08T08:13:17;7.30;;;5.97;;
65035;SDS011;51603;49.300;8.880;2023-09-08T08:15:43;6.60;;;6.00;;
65035;SDS011;51603;49.300;8.880;2023-09-08T08:18:10;7.00;;;6.30;;
65035;SDS011;51603;49.300;8.880;2023-09-08T08:20:36;6.20;;;5.60;;
65035;SDS011;51603;49.300;8.880;2023-09-08T08:23:02;6.90;;;6.20;;
65035;SDS011;51603;49.300;8.880;2023-09-08T08:25:28;7.17;;;6.20;;
65035;SDS011;51603;49.300;8.880;2023-09-08T08:27:54;5.77;;;5.27;;
65035;SDS011;51603;49.300;8.880;2023-09-08T08:30:19;6.33;;;5.70;;
65035;SDS011;51603;49.300;8.880;2023-09-08T08:32:45;7.20;;;6.30;;
65035;SDS011;51603;49.300;8.880;2023-09-08T08:35:10;5.83;;;5.27;;
65035;SDS011;51603;49.300;8.880;2023-09-08T08:37:36;6.33;;;5.83;;
65035;SDS011;51603;49.300;8.880;2023-09-08T08:40:04;6.70;;;5.37;;
65035;SDS011;51603;49.300;8.880;2023-09-08T08:42:33;6.27;;;5.70;;
65035;SDS011;51603;49.300;8.880;2023-09-08T08:45:00;5.93;;;5.40;;
65035;SDS011;51603;49.300;8.880;2023-09-08T08:47:29;5.67;;;5.17;;
65035;SDS011;51603;49.300;8.880;2023-09-08T08:49:55;7.03;;;5.37;;
65035;SDS011;51603;49.300;8.880;2023-09-08T08:52:25;5.03;;;4.40;;
65035;SDS011;51603;49.300;8.880;2023-09-08T08:54:51;5.80;;;5.20;;
65035;SDS011;51603;49.300;8.880;2023-09-08T08:57:19;6.30;;;5.57;;
65035;SDS011;51603;49.300;8.880;2023-09-08T08:59:46;7.27;;;6.57;;
65035;SDS011;51603;49.300;8.880;2023-09-08T09:02:13;5.77;;;5.17;;
65035;SDS011;51603;49.300;8.880;2023-09-08T09:04:40;5.87;;;5.37;;
65035;SDS011;51603;49.300;8.880;2023-09-08T09:07:06;8.00;;;5.90;;
65035;SDS011;51603;49.300;8.880;2023-09-08T09:09:32;7.20;;;5.67;;
65035;SDS011;51603;49.300;8.880;2023-09-08T09:11:58;6.10;;;5.50;;
65035;SDS011;51603;49.300;8.880;2023-09-08T09:14:24;6.10;;;5.50;;
65035;SDS011;51603;49.300;8.880;2023-09-08T09:16:50;6.90;;;5.90;;
65035;SDS011;51603;49.300;8.880;2023-09-08T09:19:19;9.50;;;6.30;;
65035;SDS011;51603;49.300;8.880;2023-09-08T09:21:50;4.93;;;4.53;;
65035;SDS011;51603;49.300;8.880;2023-09-08T09:27:01;6.20;;;5.20;;
65035;SDS011;51603;49.300;8.880;2023-09-08T09:29:29;6.53;;;5.87;;
65035;SDS011;51603;49.300;8.880;2023-09-08T09:31:56;6.80;;;4.90;;
65035;SDS011;51603;49.300;8.880;2023-09-08T09:34:29;6.10;;;5.53;;
65035;SDS011;51603;49.300;8.880;2023-09-08T09:36:56;6.70;;;6.00;;
65035;SDS011;51603;49.300;8.880;2023-09-08T09:39:23;6.40;;;5.80;;
65035;SDS011;51603;49.300;8.880;2023-09-08T09:41:49;5.27;;;4.70;;
65035;SDS011;51603;49.300;8.880;2023-09-08T09:44:21;5.90;;;5.07;;
65035;SDS011;51603;49.300;8.880;2023-09-08T09:46:48;5.47;;;5.00;;
65035;SDS011;51603;49.300;8.880;2023-09-08T09:49:16;6.50;;;5.90;;
65035;SDS011;51603;49.300;8.880;2023-09-08T09:51:52;5.90;;;5.30;;
65035;SDS011;51603;49.300;8.880;2023-09-08T09:54:18;6.50;;;5.87;;
65035;SDS011;51603;49.300;8.880;2023-09-08T09:56:44;6.10;;;5.10;;
65035;SDS011;51603;49.300;8.880;2023-09-08T09:59:12;8.20;;;5.97;;
65035;SDS011;51603;49.300;8.880;2023-09-08T10:01:39;7.40;;;5.30;;
65035;SDS011;51603;49.300;8.880;2023-09-08T10:04:06;6.70;;;4.90;;
65035;SDS011;51603;49.300;8.880;2023-09-08T10:06:32;6.10;;;5.50;;
65035;SDS011;51603;49.300;8.880;2023-09-08T10:08:59;6.47;;;5.53;;
65035;SDS011;51603;49.300;8.880;2023-09-08T10:11:28;5.33;;;4.83;;
65035;SDS011;51603;49.300;8.880;2023-09-08T10:13:55;6.50;;;5.87;;
65035;SDS011;51603;49.300;8.880;2023-09-08T10:16:23;5.83;;;5.33;;
65035;SDS011;51603;49.300;8.880;2023-09-08T10:18:52;6.50;;;5.40;;
65035;SDS011;51603;49.300;8.880;2023-09-08T10:21:19;5.40;;;4.40;;
65035;SDS011;51603;49.300;8.880;2023-09-08T10:23:55;6.23;;;5.67;;
65035;SDS011;51603;49.300;8.880;2023-09-08T10:26:29;5.87;;;5.20;;
65035;SDS011;51603;49.300;8.880;2023-09-08T10:28:57;6.50;;;5.63;;
65035;SDS011;51603;49.300;8.880;2023-09-08T10:31:24;6.27;;;5.33;;
65035;SDS011;51603;49.300;8.880;2023-09-08T10:33:52;5.10;;;4.70;;
65035;SDS011;51603;49.300;8.880;2023-09-08T10:36:20;5.50;;;5.00;;
65035;SDS011;51603;49.300;8.880;2023-09-08T10:38:45;6.97;;;5.47;;
65035;SDS011;51603;49.300;8.880;2023-09-08T10:43:45;5.93;;;5.43;;
65035;SDS011;51603;49.300;8.880;2023-09-08T10:46:22;7.07;;;5.57;;
65035;SDS011;51603;49.300;8.880;2023-09-08T10:48:52;6.73;;;5.40;;
65035;SDS011;51603;49.300;8.880;2023-09-08T10:51:32;5.23;;;4.73;;
65035;SDS011;51603;49.300;8.880;2023-09-08T10:53:58;6.40;;;5.80;;
65035;SDS011;51603;49.300;8.880;2023-09-08T10:56:46;5.80;;;5.30;;
65035;SDS011;51603;49.300;8.880;2023-09-08T10:59:16;5.47;;;5.00;;
65035;SDS011;51603;49.300;8.880;2023-09-08T11:01:42;9.27;;;5.13;;
65035;SDS011;51603;49.300;8.880;2023-09-08T11:04:07;5.00;;;4.60;;
65035;SDS011;51603;49.300;8.880;2023-09-08T11:06:35;6.30;;;5.00;;
65035;SDS011;51603;49.300;8.880;2023-09-08T11:09:08;5.63;;;5.10;;
65035;SDS011;51603;49.300;8.880;2023-09-08T11:11:34;6.80;;;4.37;;
65035;SDS011;51603;49.300;8.880;2023-09-08T11:14:01;5.60;;;5.10;;
65035;SDS011;51603;49.300;8.880;2023-09-08T11:16:27;5.30;;;4.80;;
65035;SDS011;51603;49.300;8.880;2023-09-08T11:18:56;5.00;;;4.60;;
65035;SDS011;51603;49.300;8.880;2023-09-08T11:21:22;5.37;;;4.90;;
65035;SDS011;51603;49.300;8.880;2023-09-08T11:23:47;5.40;;;4.90;;
65035;SDS011;51603;49.300;8.880;2023-09-08T11:26:13;6.30;;;5.70;;
65035;SDS011;51603;49.300;8.880;2023-09-08T11:28:38;5.20;;;4.70;;
65035;SDS011;51603;49.300;8.880;2023-09-08T11:31:06;5.77;;;5.27;;
65035;SDS011;51603;49.300;8.880;2023-09-08T11:33:33;5.03;;;4.53;;
65035;SDS011;51603;49.300;8.880;2023-09-08T11:36:10;6.43;;;5.27;;
65035;SDS011;51603;49.300;8.880;2023-09-08T11:38:37;10.07;;;4.87;;
65035;SDS011;51603;49.300;8.880;2023-09-08T11:41:03;5.60;;;5.10;;
65035;SDS011;51603;49.300;8.880;2023-09-08T11:43:28;6.30;;;4.83;;
65035;SDS011;51603;49.300;8.880;2023-09-08T11:45:57;7.40;;;5.40;;
65035;SDS011;51603;49.300;8.880;2023-09-08T11:48:24;10.53;;;5.30;;
65035;SDS011;51603;49.300;8.880;2023-09-08T11:50:52;6.70;;;4.93;;
65035;SDS011;51603;49.300;8.880;2023-09-08T11:53:19;7.90;;;4.77;;
65035;SDS011;51603;49.300;8.880;2023-09-08T11:55:45;5.17;;;4.77;;
65035;SDS011;51603;49.300;8.880;2023-09-08T11:58:11;5.33;;;4.93;;
65035;SDS011;51603;49.300;8.880;2023-09-08T12:00:37;5.30;;;4.90;;
65035;SDS011;51603;49.300;8.880;2023-09-08T12:03:13;5.10;;;4.70;;
65035;SDS011;51603;49.300;8.880;2023-09-08T12:05:40;5.40;;;4.90;;
65035;SDS011;51603;49.300;8.880;2023-09-08T12:08:07;12.50;;;5.57;;
65035;SDS011;51603;49.300;8.880;2023-09-08T12:10:42;5.10;;;4.43;;
65035;SDS011;51603;49.300;8.880;2023-09-08T12:13:08;5.20;;;4.80;;
65035;SDS011;51603;49.300;8.880;2023-09-08T12:15:35;5.27;;;4.77;;
65035;SDS011;51603;49.300;8.880;2023-09-08T12:18:05;6.57;;;5.80;;
65035;SDS011;51603;49.300;8.880;2023-09-08T12:20:32;7.00;;;6.30;;
65035;SDS011;51603;49.300;8.880;2023-09-08T12:23:00;6.23;;;5.63;;
65035;SDS011;51603;49.300;8.880;2023-09-08T12:25:30;8.40;;;5.60;;
65035;SDS011;51603;49.300;8.880;2023-09-08T12:28:00;5.70;;;5.17;;
65035;SDS011;51603;49.300;8.880;2023-09-08T12:30:25;5.37;;;4.87;;
65035;SDS011;51603;49.300;8.880;2023-09-08T12:32:57;5.10;;;4.53;;
65035;SDS011;51603;49.300;8.880;2023-09-08T12:35:24;5.70;;;5.10;;
65035;SDS011;51603;49.300;8.880;2023-09-08T12:37:59;5.13;;;4.63;;
65035;SDS011;51603;49.300;8.880;2023-09-08T12:40:26;5.83;;;4.70;;
65035;SDS011;51603;49.300;8.880;2023-09-08T12:42:53;6.80;;;5.77;;
65035;SDS011;51603;49.300;8.880;2023-09-08T12:45:22;6.40;;;4.50;;
65035;SDS011;51603;49.300;8.880;2023-09-08T12:47:48;10.30;;;5.40;;
65035;SDS011;51603;49.300;8.880;2023-09-08T12:50:14;4.73;;;4.23;;
65035;SDS011;51603;49.300;8.880;2023-09-08T12:52:39;5.90;;;4.83;;
65035;SDS011;51603;49.300;8.880;2023-09-08T12:55:05;5.47;;;4.97;;
65035;SDS011;51603;49.300;8.880;2023-09-08T12:57:32;5.60;;;5.10;;
65035;SDS011;51603;49.300;8.880;2023-09-08T12:59:57;5.00;;;4.60;;
65035;SDS011;51603;49.300;8.880;2023-09-08T13:02:23;5.97;;;4.37;;
65035;SDS011;51603;49.300;8.880;2023-09-08T13:04:48;5.13;;;4.47;;
65035;SDS011;51603;49.300;8.880;2023-09-08T13:07:15;5.63;;;4.77;;
65035;SDS011;51603;49.300;8.880;2023-09-08T13:09:41;5.23;;;4.80;;
65035;SDS011;51603;49.300;8.880;2023-09-08T13:12:07;4.97;;;4.47;;
65035;SDS011;51603;49.300;8.880;2023-09-08T13:14:34;5.97;;;5.37;;
65035;SDS011;51603;49.300;8.880;2023-09-08T13:17:00;7.50;;;4.57;;
65035;SDS011;51603;49.300;8.880;2023-09-08T13:19:25;4.57;;;4.13;;
65035;SDS011;51603;49.300;8.880;2023-09-08T13:21:51;7.97;;;5.27;;
65035;SDS011;51603;49.300;8.880;2023-09-08T13:24:16;7.70;;;5.00;;
65035;SDS011;51603;49.300;8.880;2023-09-08T13:26:42;5.10;;;4.57;;
65035;SDS011;51603;49.300;8.880;2023-09-08T13:29:07;5.10;;;4.70;;
65035;SDS011;51603;49.300;8.880;2023-09-08T13:31:33;4.30;;;3.90;;
65035;SDS011;51603;49.300;8.880;2023-09-08T13:33:58;5.60;;;4.67;;
65035;SDS011;51603;49.300;8.880;2023-09-08T13:36:24;6.30;;;4.77;;
65035;SDS011;51603;49.300;8.880;2023-09-08T13:38:49;4.90;;;4.50;;
65035;SDS011;51603;49.300;8.880;2023-09-08T13:41:15;8.50;;;5.07;;
65035;SDS011;51603;49.300;8.880;2023-09-08T13:43:40;9.03;;;4.90;;
65035;SDS011;51603;49.300;8.880;2023-09-08T13:46:06;5.13;;;4.53;;
65035;SDS011;51603;49.300;8.880;2023-09-08T13:48:31;4.77;;;4.37;;
65035;SDS011;51603;49.300;8.880;2023-09-08T13:51:00;5.27;;;4.50;;
65035;SDS011;51603;49.300;8.880;2023-09-08T13:53:27;7.47;;;4.63;;
65035;SDS011;51603;49.300;8.880;2023-09-08T13:55:53;5.97;;;5.47;;
65035;SDS011;51603;49.300;8.880;2023-09-08T13:58:19;5.10;;;4.70;;
65035;SDS011;51603;49.300;8.880;2023-09-08T14:00:44;5.10;;;4.70;;
65035;SDS011;51603;49.300;8.880;2023-09-08T14:03:10;5.30;;;4.80;;
65035;SDS011;51603;49.300;8.880;2023-09-08T14:05:35;5.10;;;4.60;;
65035;SDS011;51603;49.300;8.880;2023-09-08T14:08:01;6.80;;;4.77;;
65035;SDS011;51603;49.300;8.880;2023-09-08T14:10:26;5.97;;;5.37;;
65035;SDS011;51603;49.300;8.880;2023-09-08T14:12:51;5.57;;;4.40;;
65035;SDS011;51603;49.300;8.880;2023-09-08T14:15:17;6.03;;;4.50;;
65035;SDS011;51603;49.300;8.880;2023-09-08T14:17:43;5.33;;;4.70;;
65035;SDS011;51603;49.300;8.880;2023-09-08T14:20:08;5.13;;;4.63;;
65035;SDS011;51603;49.300;8.880;2023-09-08T14:22:34;5.47;;;4.83;;
65035;SDS011;51603;49.300;8.880;2023-09-08T14:25:00;5.03;;;4.60;;
65035;SDS011;51603;49.300;8.880;2023-09-08T14:27:25;7.20;;;4.70;;
65035;SDS011;51603;49.300;8.880;2023-09-08T14:29:51;5.47;;;4.43;;
65035;SDS011;51603;49.300;8.880;2023-09-08T14:32:17;4.93;;;4.53;;
65035;SDS011;51603;49.300;8.880;2023-09-08T14:34:42;5.00;;;4.60;;
65035;SDS011;51603;49.300;8.880;2023-09-08T14:37:08;4.53;;;4.13;;
65035;SDS011;51603;49.300;8.880;2023-09-08T14:39:33;5.43;;;4.77;;
65035;SDS011;51603;49.300;8.880;2023-09-08T14:41:59;5.47;;;4.97;;
65035;SDS011;51603;49.300;8.880;2023-09-08T14:44:24;5.20;;;4.77;;
65035;SDS011;51603;49.300;8.880;2023-09-08T14:46:50;4.97;;;4.40;;
65035;SDS011;51603;49.300;8.880;2023-09-08T14:49:16;5.23;;;4.60;;